createdAt,value
2023-01-21T00:00:57.320Z,898.13
2023-01-21T00:04:00.664Z,911.83
2023-01-21T00:07:04.156Z,958.22
2023-01-21T00:10:09.881Z,942.85
2023-01-21T00:13:13.201Z,920.38
2023-01-21T00:16:16.629Z,912.75
2023-01-21T00:19:20.059Z,938.88
2023-01-21T00:22:23.460Z,914.35
2023-01-21T00:25:28.558Z,902.70
2023-01-21T00:28:33.601Z,963.72
2023-01-21T00:31:37.122Z,931.20
2023-01-21T00:34:40.533Z,940.30
2023-01-21T00:37:43.924Z,950.28
2023-01-21T00:40:48.814Z,939.58
2023-01-21T00:43:52.207Z,937.40
2023-01-21T00:46:55.562Z,922.97
2023-01-21T00:49:58.919Z,993.17
2023-01-21T00:53:02.352Z,923.90
2023-01-21T00:56:09.343Z,954.83
2023-01-21T00:59:12.994Z,953.80
2023-01-21T01:02:16.270Z,935.25
2023-01-21T01:05:19.986Z,919.08
2023-01-21T01:08:23.373Z,906.30
2023-01-21T01:11:28.985Z,954.58
2023-01-21T01:14:32.282Z,933.08
2023-01-21T01:17:35.742Z,966.67
2023-01-21T01:20:38.946Z,894.13
2023-01-21T01:23:43.490Z,931.47
2023-01-21T01:26:48.167Z,971.22
2023-01-21T01:29:51.394Z,901.72
2023-01-21T01:32:54.532Z,917.17
2023-01-21T01:36:02.652Z,919.72
2023-01-21T01:39:07.481Z,945.75
2023-01-21T01:42:15.437Z,925.15
2023-01-21T01:45:21.216Z,938.38
2023-01-21T01:48:28.737Z,925.17
2023-01-21T01:51:40.441Z,947.30
2023-01-21T01:54:47.040Z,963.47
2023-01-21T01:57:53.996Z,921.58
2023-01-21T02:00:57.649Z,924.47
2023-01-21T02:04:04.345Z,921.28
2023-01-21T02:07:08.595Z,942.03
2023-01-21T02:10:14.079Z,900.03
2023-01-21T02:13:19.307Z,956.97
2023-01-21T02:16:57.861Z,923.85
2023-01-21T02:20:40.708Z,898.15
2023-01-21T02:24:08.823Z,942.15
2023-01-21T02:27:30.852Z,940.88
2023-01-21T02:31:03.090Z,925.58
2023-01-21T02:34:17.715Z,954.22
2023-01-21T02:37:27.592Z,962.78
2023-01-21T02:40:37.117Z,917.38
2023-01-21T02:43:48.222Z,717.22
2023-01-21T02:46:56.595Z,956.45
2023-01-21T02:50:05.708Z,929.53
2023-01-21T02:53:19.960Z,900.13
2023-01-21T02:56:28.249Z,927.17
2023-01-21T02:59:31.708Z,953.63
2023-01-21T03:02:52.360Z,927.83
2023-01-21T03:06:20.731Z,924.55
2023-01-21T03:09:26.081Z,922.70
2023-01-21T03:12:37.690Z,904.13
2023-01-21T03:16:06.587Z,942.70
2023-01-21T03:19:14.482Z,961.25
2023-01-21T03:22:22.903Z,914.45
2023-01-21T03:25:27.303Z,927.28
2023-01-21T03:28:33.856Z,904.03
2023-01-21T03:31:39.857Z,935.53
2023-01-21T03:34:48.212Z,932.75
2023-01-21T03:37:57.662Z,941.67
2023-01-21T03:41:05.370Z,694.60
2023-01-21T03:44:09.159Z,943.20
2023-01-21T03:47:20.100Z,908.55
2023-01-21T03:50:27.692Z,940.28
2023-01-21T03:53:32.255Z,913.88
2023-01-21T03:56:35.408Z,926.00
2023-01-21T03:59:38.577Z,966.63
2023-01-21T04:02:41.803Z,922.83
2023-01-21T04:05:45.006Z,912.30
2023-01-21T04:08:50.164Z,913.25
2023-01-21T04:11:53.380Z,960.33
2023-01-21T04:14:57.144Z,938.17
2023-01-21T04:18:00.458Z,895.33
2023-01-21T04:21:03.654Z,900.53
2023-01-21T04:24:08.726Z,909.55
2023-01-21T04:27:11.916Z,910.97
2023-01-21T04:30:15.718Z,906.85
2023-01-21T04:33:19.605Z,921.80
2023-01-21T04:36:22.805Z,908.03
2023-01-21T04:39:27.375Z,921.83
2023-01-21T04:42:30.504Z,922.20
2023-01-21T04:45:33.755Z,902.05
2023-01-21T04:48:37.039Z,944.67
2023-01-21T04:51:40.230Z,950.90
2023-01-21T04:54:44.785Z,911.42
2023-01-21T04:57:47.938Z,910.47
2023-01-21T05:00:51.183Z,869.00
2023-01-21T05:03:54.425Z,914.42
2023-01-21T05:06:57.646Z,895.38
2023-01-21T05:10:02.393Z,880.20
2023-01-21T05:13:05.818Z,920.88
2023-01-21T05:16:10.074Z,893.58
2023-01-21T05:19:13.509Z,875.50
2023-01-21T05:22:16.669Z,883.00
2023-01-21T05:25:21.227Z,879.75
2023-01-21T05:28:24.448Z,848.92
2023-01-21T05:31:27.723Z,903.40
2023-01-21T05:34:31.137Z,930.25
2023-01-21T05:37:34.283Z,891.15
2023-01-21T05:40:40.063Z,863.38
2023-01-21T05:43:43.267Z,869.85
2023-01-21T05:46:46.504Z,874.08
2023-01-21T05:49:49.668Z,862.30
2023-01-21T05:52:52.786Z,849.60
2023-01-21T05:55:58.271Z,854.45
2023-01-21T05:59:01.499Z,860.47
2023-01-21T06:02:04.773Z,819.92
2023-01-21T06:05:08.985Z,816.33
2023-01-21T06:08:13.155Z,873.97
2023-01-21T06:11:17.797Z,828.78
2023-01-21T06:14:20.990Z,804.72
2023-01-21T06:17:24.279Z,872.78
2023-01-21T06:20:29.469Z,858.30
2023-01-21T06:23:32.670Z,902.60
2023-01-21T06:26:37.297Z,854.28
2023-01-21T06:29:40.640Z,893.03
2023-01-21T06:32:43.792Z,900.53
2023-01-21T06:35:47.429Z,914.00
2023-01-21T06:38:50.663Z,870.17
2023-01-21T06:41:55.574Z,863.72
2023-01-21T06:44:58.826Z,883.58
2023-01-21T06:48:02.313Z,854.97
2023-01-21T06:51:05.912Z,901.10
2023-01-21T06:54:09.347Z,898.95
2023-01-21T06:57:13.965Z,925.25
2023-01-21T07:00:18.548Z,922.03
2023-01-21T07:03:22.310Z,899.22
2023-01-21T07:06:25.759Z,932.53
2023-01-21T07:09:29.060Z,902.67
2023-01-21T07:12:34.329Z,934.67
2023-01-21T07:15:37.783Z,948.15
2023-01-21T07:18:41.198Z,921.13
2023-01-21T07:21:44.720Z,954.75
2023-01-21T07:24:48.177Z,926.03
2023-01-21T07:27:52.801Z,973.33
2023-01-21T07:30:56.370Z,971.63
2023-01-21T07:33:59.957Z,957.60
2023-01-21T07:37:03.382Z,918.08
2023-01-21T07:40:08.116Z,907.33
2023-01-21T07:43:12.797Z,953.60
2023-01-21T07:46:18.120Z,927.60
2023-01-21T07:49:21.600Z,949.15
2023-01-21T07:52:25.115Z,882.38
2023-01-21T07:55:29.641Z,971.63
2023-01-21T07:58:34.638Z,945.75
2023-01-21T08:01:38.354Z,937.00
2023-01-21T08:04:41.847Z,939.28
2023-01-21T08:07:45.131Z,919.97
2023-01-21T08:10:53.749Z,940.20
2023-01-21T08:13:58.533Z,917.28
2023-01-21T08:17:02.192Z,915.28
2023-01-21T08:20:05.938Z,911.15
2023-01-21T08:23:09.148Z,918.97
2023-01-21T08:26:12.369Z,948.97
2023-01-21T08:29:17.020Z,916.13
2023-01-21T08:32:20.272Z,898.53
2023-01-21T08:35:23.487Z,924.70
2023-01-21T08:38:26.672Z,864.45
2023-01-21T08:41:29.915Z,844.72
2023-01-21T08:44:35.732Z,819.78
2023-01-21T08:47:38.889Z,847.92
2023-01-21T08:50:42.011Z,869.97
2023-01-21T08:53:45.238Z,855.47
2023-01-21T08:56:48.540Z,838.70
2023-01-21T08:59:53.119Z,869.22
2023-01-21T09:02:56.414Z,848.38
2023-01-21T09:06:01.692Z,864.22
2023-01-21T09:09:04.954Z,799.75
2023-01-21T09:12:08.637Z,777.67
2023-01-21T09:15:13.518Z,777.00
2023-01-21T09:18:16.732Z,792.80
2023-01-21T09:21:19.919Z,784.65
2023-01-21T09:24:23.695Z,819.50
2023-01-21T09:27:28.246Z,753.42
2023-01-21T09:30:33.102Z,799.75
2023-01-21T09:33:38.223Z,782.53
2023-01-21T09:36:41.909Z,752.80
2023-01-21T09:39:45.157Z,680.30
2023-01-21T09:42:48.400Z,720.00
2023-01-21T09:45:56.508Z,690.20
2023-01-21T09:49:00.637Z,752.17
2023-01-21T09:52:15.750Z,746.92
2023-01-21T09:55:21.496Z,723.35
2023-01-21T09:58:32.050Z,725.10
2023-01-21T10:01:39.788Z,683.65
2023-01-21T10:04:50.103Z,655.72
2023-01-21T10:11:09.830Z,611.53
2023-01-21T10:14:25.126Z,652.92
2023-01-21T10:17:38.096Z,594.80
2023-01-21T10:20:47.027Z,573.67
2023-01-21T10:23:53.483Z,535.67
2023-01-21T10:26:56.885Z,510.65
2023-01-21T10:30:05.959Z,476.40
2023-01-21T10:33:18.770Z,434.08
2023-01-21T10:37:00.886Z,407.80
2023-01-21T10:40:12.174Z,409.23
2023-01-21T10:43:28.994Z,397.60
2023-01-21T10:46:38.415Z,420.90
2023-01-21T10:49:50.725Z,399.77
2023-01-21T10:53:01.389Z,418.92
2023-01-21T10:56:15.046Z,425.30
2023-01-21T10:59:22.346Z,450.98
2023-01-21T11:02:30.161Z,432.40
2023-01-21T11:05:35.006Z,416.90
2023-01-21T11:08:39.289Z,406.17
2023-01-21T11:11:43.010Z,359.77
2023-01-21T11:14:49.153Z,335.90
2023-01-21T11:17:56.487Z,332.83
2023-01-21T11:21:04.156Z,336.13
2023-01-21T11:24:23.103Z,306.52
2023-01-21T11:27:34.927Z,296.42
2023-01-21T11:30:50.734Z,270.08
2023-01-21T11:33:55.915Z,226.43
2023-01-21T11:37:02.943Z,192.95
2023-01-21T11:40:09.232Z,220.35
2023-01-21T11:43:36.988Z,195.80
2023-01-21T11:46:41.467Z,189.07
2023-01-21T11:49:49.000Z,159.02
2023-01-21T11:53:12.685Z,174.13
2023-01-21T11:56:17.380Z,197.48
2023-01-21T11:59:25.828Z,197.73
2023-01-21T12:02:32.090Z,207.55
2023-01-21T12:05:40.369Z,245.90
2023-01-21T12:08:49.444Z,284.45
2023-01-21T12:12:26.231Z,288.30
2023-01-21T12:15:46.953Z,252.50
2023-01-21T12:19:18.854Z,278.05
2023-01-21T12:22:36.231Z,296.25
2023-01-21T12:25:48.658Z,259.98
2023-01-21T12:29:22.894Z,215.70
2023-01-21T12:32:29.017Z,202.40
2023-01-21T12:35:36.723Z,208.00
2023-01-21T12:38:44.128Z,217.93
2023-01-21T12:41:56.647Z,180.38
2023-01-21T12:45:04.813Z,121.68
2023-01-21T12:48:16.787Z,122.50
2023-01-21T12:51:26.971Z,96.50
2023-01-21T12:54:39.135Z,78.43
2023-01-21T12:57:51.529Z,83.45
2023-01-21T13:01:15.631Z,84.65
2023-01-21T13:04:29.987Z,120.13
2023-01-21T13:07:44.800Z,154.68
2023-01-21T13:10:51.817Z,167.35
2023-01-21T13:14:04.442Z,181.23
2023-01-21T13:17:14.289Z,151.45
2023-01-21T13:20:20.567Z,140.10
2023-01-21T13:23:32.273Z,149.90
2023-01-21T13:26:44.353Z,170.60
2023-01-21T13:29:58.450Z,166.45
2023-01-21T13:33:17.863Z,158.10
2023-01-21T13:36:34.570Z,139.93
2023-01-21T13:39:45.097Z,126.93
2023-01-21T13:42:56.449Z,116.28
2023-01-21T13:46:14.250Z,110.57
2023-01-21T13:49:42.804Z,107.85
2023-01-21T13:53:03.173Z,82.22
2023-01-21T13:59:22.695Z,79.50
2023-01-21T14:02:31.705Z,85.80
2023-01-21T14:05:39.084Z,99.00
2023-01-21T14:08:46.565Z,127.95
2023-01-21T14:11:55.016Z,162.90
2023-01-21T14:15:32.506Z,237.45
2023-01-21T14:18:58.987Z,231.50
2023-01-21T14:22:20.007Z,257.13
2023-01-21T14:25:35.540Z,190.70
2023-01-21T14:28:45.205Z,251.10
2023-01-21T14:31:55.180Z,327.60
2023-01-21T14:35:15.581Z,291.33
2023-01-21T14:41:26.202Z,424.60
2023-01-21T14:44:41.761Z,413.38
2023-01-21T14:47:48.933Z,397.65
2023-01-21T14:51:12.232Z,369.02
2023-01-21T14:54:18.928Z,362.10
2023-01-21T14:57:27.689Z,361.05
2023-01-21T15:00:33.575Z,355.02
2023-01-21T15:03:49.571Z,386.27
2023-01-21T15:06:57.862Z,397.00
2023-01-21T15:10:09.096Z,380.27
2023-01-21T15:13:29.415Z,426.48
2023-01-21T15:19:40.739Z,377.58
2023-01-21T15:22:46.977Z,426.23
2023-01-21T15:26:30.378Z,419.90
2023-01-21T15:29:35.973Z,426.63
2023-01-21T15:32:40.916Z,424.13
2023-01-21T15:35:45.451Z,436.30
2023-01-21T15:38:51.059Z,431.05
2023-01-21T15:42:06.339Z,442.50
2023-01-21T15:45:24.993Z,407.30
2023-01-21T15:48:51.618Z,471.85
2023-01-21T15:52:06.711Z,439.42
2023-01-21T15:55:26.456Z,401.92
2023-01-21T15:58:42.723Z,383.48
2023-01-21T16:01:55.529Z,390.05
2023-01-21T16:05:15.559Z,418.60
2023-01-21T16:08:36.895Z,375.83
2023-01-21T16:11:58.543Z,446.83
2023-01-21T16:15:12.923Z,424.17
2023-01-21T16:18:27.379Z,387.98
2023-01-21T16:21:34.244Z,411.73
2023-01-21T16:24:43.688Z,437.55
2023-01-21T16:28:39.413Z,311.47
2023-01-21T16:31:48.794Z,438.30
2023-01-21T16:34:52.189Z,452.77
2023-01-21T16:37:57.089Z,465.17
2023-01-21T16:41:24.208Z,472.23
2023-01-21T16:44:28.142Z,494.00
2023-01-21T16:47:36.675Z,493.42
2023-01-21T16:50:39.919Z,455.42
2023-01-21T16:53:43.299Z,461.35
2023-01-21T16:56:50.007Z,469.35
2023-01-21T16:59:55.951Z,457.17
2023-01-21T17:03:03.659Z,466.80
2023-01-21T17:06:15.167Z,441.92
2023-01-21T17:09:27.852Z,470.55
2023-01-21T17:12:36.103Z,447.30
2023-01-21T17:15:42.323Z,450.85
2023-01-21T17:18:52.339Z,464.52
2023-01-21T17:21:59.975Z,434.33
2023-01-21T17:25:08.171Z,426.75
2023-01-21T17:28:18.913Z,491.08
2023-01-21T17:31:28.952Z,438.80
2023-01-21T17:34:35.318Z,472.65
2023-01-21T17:37:43.903Z,478.83
2023-01-21T17:41:01.130Z,461.48
2023-01-21T17:44:07.805Z,467.75
2023-01-21T17:47:23.163Z,449.33
2023-01-21T17:50:30.490Z,446.42
2023-01-21T17:53:34.088Z,442.58
2023-01-21T17:56:42.451Z,441.25
2023-01-21T17:59:46.853Z,474.98
2023-01-21T18:02:50.462Z,429.33
2023-01-21T18:05:56.046Z,432.95
2023-01-21T18:08:59.505Z,471.23
2023-01-21T18:12:03.161Z,496.98
2023-01-21T18:15:08.086Z,446.23
2023-01-21T18:18:17.812Z,473.65
2023-01-21T18:21:22.840Z,438.33
2023-01-21T18:24:26.763Z,447.85
2023-01-21T18:27:30.501Z,405.05
2023-01-21T18:30:34.041Z,423.08
2023-01-21T18:33:37.584Z,431.10
2023-01-21T18:36:43.118Z,431.48
2023-01-21T18:39:47.133Z,444.30
2023-01-21T18:42:52.339Z,456.02
2023-01-21T18:45:55.990Z,377.20
2023-01-21T18:48:59.475Z,431.27
2023-01-21T18:52:04.514Z,423.02
2023-01-21T18:55:08.975Z,405.30
2023-01-21T18:58:14.843Z,427.25
2023-01-21T19:01:23.594Z,401.52
2023-01-21T19:04:27.686Z,450.13
2023-01-21T19:07:33.862Z,440.77
2023-01-21T19:10:37.246Z,427.25
2023-01-21T19:13:40.951Z,437.15
2023-01-21T19:16:45.534Z,436.52
2023-01-21T19:19:49.156Z,415.48
2023-01-21T19:22:55.401Z,466.63
2023-01-21T19:25:59.742Z,416.35
2023-01-21T19:29:04.005Z,436.90
2023-01-21T19:32:08.300Z,435.13
2023-01-21T19:35:15.283Z,418.60
2023-01-21T19:38:23.221Z,449.48
2023-01-21T19:41:27.148Z,420.58
2023-01-21T19:44:30.708Z,411.02
2023-01-21T19:47:34.556Z,398.45
2023-01-21T19:50:38.549Z,402.35
2023-01-21T19:53:43.700Z,387.90
2023-01-21T19:56:47.485Z,397.67
2023-01-21T19:59:53.643Z,420.02
2023-01-21T20:02:57.483Z,377.88
2023-01-21T20:06:03.551Z,417.30
2023-01-21T20:09:12.172Z,411.67
2023-01-21T20:12:15.770Z,457.17
2023-01-21T20:15:23.644Z,419.50
2023-01-21T20:18:29.106Z,456.13
2023-01-21T20:21:32.695Z,436.50
2023-01-21T20:24:38.799Z,451.95
2023-01-21T20:27:42.904Z,426.08
2023-01-21T20:30:48.444Z,439.17
2023-01-21T20:33:52.240Z,393.15
2023-01-21T20:36:56.824Z,377.65
2023-01-21T20:40:03.129Z,374.33
2023-01-21T20:43:07.322Z,380.85
2023-01-21T20:46:17.478Z,361.67
2023-01-21T20:49:23.646Z,349.35
2023-01-21T20:52:27.920Z,316.73
2023-01-21T20:55:33.982Z,343.20
2023-01-21T20:58:42.238Z,373.85
2023-01-21T21:01:47.366Z,381.13
2023-01-21T21:04:54.518Z,395.67
2023-01-21T21:07:58.740Z,361.20
2023-01-21T21:11:04.515Z,348.92
2023-01-21T21:14:08.846Z,427.92
2023-01-21T21:17:13.788Z,366.48
2023-01-21T21:20:23.707Z,401.05
2023-01-21T21:23:27.131Z,413.70
2023-01-21T21:26:33.551Z,354.65
2023-01-21T21:29:36.977Z,405.60
2023-01-21T21:32:40.535Z,345.98
2023-01-21T21:35:44.765Z,390.63
2023-01-21T21:38:49.058Z,398.17
2023-01-21T21:42:11.476Z,408.20
2023-01-21T21:45:15.178Z,374.92
2023-01-21T21:48:39.325Z,400.75
2023-01-21T21:51:45.367Z,355.50
2023-01-21T21:54:48.974Z,393.30
2023-01-21T21:57:54.676Z,353.08
2023-01-21T22:00:58.264Z,456.92
2023-01-21T22:04:03.349Z,376.25
2023-01-21T22:07:06.688Z,390.25
2023-01-21T22:10:13.099Z,371.02
2023-01-21T22:13:17.837Z,430.25
2023-01-21T22:16:24.484Z,405.05
2023-01-21T22:19:27.819Z,431.45
2023-01-21T22:22:31.160Z,348.95
2023-01-21T22:25:35.987Z,348.70
2023-01-21T22:28:40.980Z,354.63
2023-01-21T22:31:44.466Z,368.83
2023-01-21T22:34:47.862Z,358.40
2023-01-21T22:37:51.220Z,351.70
2023-01-21T22:40:55.376Z,347.17
2023-01-21T22:44:00.038Z,317.30
2023-01-21T22:47:03.380Z,334.83
2023-01-21T22:50:07.827Z,344.73
2023-01-21T22:53:11.667Z,312.95
2023-01-21T22:56:16.857Z,348.75
2023-01-21T22:59:21.963Z,314.27
2023-01-21T23:02:25.786Z,342.08
2023-01-21T23:05:29.725Z,312.55
2023-01-21T23:08:33.345Z,319.98
2023-01-21T23:11:36.882Z,347.38
2023-01-21T23:14:41.667Z,316.88
2023-01-21T23:17:45.204Z,337.45
2023-01-21T23:20:49.018Z,350.85
2023-01-21T23:23:52.430Z,331.80
2023-01-21T23:26:55.788Z,344.35
2023-01-21T23:30:01.009Z,349.27
2023-01-21T23:33:04.468Z,354.38
2023-01-21T23:36:09.513Z,329.42
2023-01-21T23:39:13.109Z,340.45
2023-01-21T23:42:17.174Z,313.42
2023-01-21T23:45:21.956Z,304.67
2023-01-21T23:48:25.311Z,315.65
2023-01-21T23:51:28.688Z,320.15
2023-01-21T23:54:32.026Z,315.52
2023-01-21T23:57:35.584Z,301.05
